sensor_id;sensor_type;location;lat;lon;timestamp;temperature;humidity
12291;DHT22;6208;48.956;9.076;2023-07-13T00:02:33;21.20;96.90
12291;DHT22;6208;48.956;9.076;2023-07-13T00:05:17;21.20;96.80
12291;DHT22;6208;48.956;9.076;2023-07-13T00:08:01;21.20;96.50
12291;DHT22;6208;48.956;9.076;2023-07-13T00:10:46;21.20;96.60
12291;DHT22;6208;48.956;9.076;2023-07-13T00:13:30;21.20;97.10
12291;DHT22;6208;48.956;9.076;2023-07-13T00:16:14;21.10;97.10
12291;DHT22;6208;48.956;9.076;2023-07-13T00:18:58;21.10;97.00
12291;DHT22;6208;48.956;9.076;2023-07-13T00:21:44;21.00;97.10
12291;DHT22;6208;48.956;9.076;2023-07-13T00:24:29;21.00;97.30
12291;DHT22;6208;48.956;9.076;2023-07-13T00:27:14;21.00;97.40
12291;DHT22;6208;48.956;9.076;2023-07-13T00:29:58;21.00;97.50
12291;DHT22;6208;48.956;9.076;2023-07-13T00:32:43;20.80;97.50
12291;DHT22;6208;48.956;9.076;2023-07-13T00:35:29;20.70;97.80
12291;DHT22;6208;48.956;9.076;2023-07-13T00:38:14;20.60;98.20
12291;DHT22;6208;48.956;9.076;2023-07-13T00:40:58;20.50;98.10
12291;DHT22;6208;48.956;9.076;2023-07-13T00:43:42;20.60;98.10
12291;DHT22;6208;48.956;9.076;2023-07-13T00:46:29;20.50;98.20
12291;DHT22;6208;48.956;9.076;2023-07-13T00:49:16;20.50;98.10
12291;DHT22;6208;48.956;9.076;2023-07-13T00:52:07;20.40;97.90
12291;DHT22;6208;48.956;9.076;2023-07-13T00:54:52;20.40;98.10
12291;DHT22;6208;48.956;9.076;2023-07-13T00:57:36;20.40;98.00
12291;DHT22;6208;48.956;9.076;2023-07-13T01:00:20;20.30;98.40
12291;DHT22;6208;48.956;9.076;2023-07-13T01:03:06;20.20;98.30
12291;DHT22;6208;48.956;9.076;2023-07-13T01:05:50;20.20;98.70
12291;DHT22;6208;48.956;9.076;2023-07-13T01:08:37;20.20;98.60
12291;DHT22;6208;48.956;9.076;2023-07-13T01:11:24;20.20;98.90
12291;DHT22;6208;48.956;9.076;2023-07-13T01:14:08;20.10;98.70
12291;DHT22;6208;48.956;9.076;2023-07-13T01:16:53;20.30;99.00
12291;DHT22;6208;48.956;9.076;2023-07-13T01:19:41;20.10;98.90
12291;DHT22;6208;48.956;9.076;2023-07-13T01:22:29;20.00;99.00
12291;DHT22;6208;48.956;9.076;2023-07-13T01:25:16;19.90;99.00
12291;DHT22;6208;48.956;9.076;2023-07-13T01:28:01;19.80;99.30
12291;DHT22;6208;48.956;9.076;2023-07-13T01:30:46;19.80;99.50
12291;DHT22;6208;48.956;9.076;2023-07-13T01:33:31;19.70;99.80
12291;DHT22;6208;48.956;9.076;2023-07-13T01:36:15;19.70;99.80
12291;DHT22;6208;48.956;9.076;2023-07-13T01:38:59;19.70;99.80
12291;DHT22;6208;48.956;9.076;2023-07-13T01:41:43;19.60;99.80
12291;DHT22;6208;48.956;9.076;2023-07-13T01:44:27;19.60;99.90
12291;DHT22;6208;48.956;9.076;2023-07-13T01:47:11;19.60;99.80
12291;DHT22;6208;48.956;9.076;2023-07-13T01:49:56;19.50;99.90
12291;DHT22;6208;48.956;9.076;2023-07-13T01:52:40;19.50;99.90
12291;DHT22;6208;48.956;9.076;2023-07-13T01:55:24;19.50;99.80
12291;DHT22;6208;48.956;9.076;2023-07-13T01:58:08;19.50;99.70
12291;DHT22;6208;48.956;9.076;2023-07-13T02:00:52;19.50;99.40
12291;DHT22;6208;48.956;9.076;2023-07-13T02:03:36;19.60;99.00
12291;DHT22;6208;48.956;9.076;2023-07-13T02:06:20;19.60;99.20
12291;DHT22;6208;48.956;9.076;2023-07-13T02:09:04;19.50;99.50
12291;DHT22;6208;48.956;9.076;2023-07-13T02:11:48;19.50;99.90
12291;DHT22;6208;48.956;9.076;2023-07-13T02:14:32;19.30;99.90
12291;DHT22;6208;48.956;9.076;2023-07-13T02:17:16;19.20;99.90
12291;DHT22;6208;48.956;9.076;2023-07-13T02:20:01;19.10;99.90
12291;DHT22;6208;48.956;9.076;2023-07-13T02:22:45;18.90;99.90
12291;DHT22;6208;48.956;9.076;2023-07-13T02:25:29;18.80;99.90
12291;DHT22;6208;48.956;9.076;2023-07-13T02:28:13;18.80;99.90
12291;DHT22;6208;48.956;9.076;2023-07-13T02:31:07;18.70;99.90
12291;DHT22;6208;48.956;9.076;2023-07-13T02:33:53;18.70;99.90
12291;DHT22;6208;48.956;9.076;2023-07-13T02:36:37;18.60;99.90
12291;DHT22;6208;48.956;9.076;2023-07-13T02:39:22;18.50;99.90
12291;DHT22;6208;48.956;9.076;2023-07-13T02:42:06;18.40;99.90
12291;DHT22;6208;48.956;9.076;2023-07-13T02:44:50;18.40;99.90
12291;DHT22;6208;48.956;9.076;2023-07-13T02:47:35;18.30;99.90
12291;DHT22;6208;48.956;9.076;2023-07-13T02:50:20;18.10;99.90
12291;DHT22;6208;48.956;9.076;2023-07-13T02:53:04;18.10;99.90
12291;DHT22;6208;48.956;9.076;2023-07-13T02:55:48;18.10;99.90
12291;DHT22;6208;48.956;9.076;2023-07-13T02:58:32;18.10;99.90
12291;DHT22;6208;48.956;9.076;2023-07-13T03:01:20;18.30;99.90
12291;DHT22;6208;48.956;9.076;2023-07-13T03:04:04;18.50;99.90
12291;DHT22;6208;48.956;9.076;2023-07-13T03:06:49;18.50;99.90
12291;DHT22;6208;48.956;9.076;2023-07-13T03:09:34;18.60;99.90
12291;DHT22;6208;48.956;9.076;2023-07-13T03:12:18;18.70;99.90
12291;DHT22;6208;48.956;9.076;2023-07-13T03:15:02;18.80;99.90
12291;DHT22;6208;48.956;9.076;2023-07-13T03:17:47;18.80;99.90
12291;DHT22;6208;48.956;9.076;2023-07-13T03:20:34;18.70;99.90
12291;DHT22;6208;48.956;9.076;2023-07-13T03:23:20;18.60;99.90
12291;DHT22;6208;48.956;9.076;2023-07-13T03:26:07;18.60;99.90
12291;DHT22;6208;48.956;9.076;2023-07-13T03:28:52;18.50;99.90
12291;DHT22;6208;48.956;9.076;2023-07-13T03:31:38;18.50;99.90
12291;DHT22;6208;48.956;9.076;2023-07-13T03:34:22;18.40;99.90
12291;DHT22;6208;48.956;9.076;2023-07-13T03:37:06;18.40;99.90
12291;DHT22;6208;48.956;9.076;2023-07-13T03:39:50;18.50;99.90
12291;DHT22;6208;48.956;9.076;2023-07-13T03:42:34;18.40;99.90
12291;DHT22;6208;48.956;9.076;2023-07-13T03:45:19;18.50;99.90
12291;DHT22;6208;48.956;9.076;2023-07-13T03:48:03;18.40;99.90
12291;DHT22;6208;48.956;9.076;2023-07-13T03:50:49;18.40;99.90
12291;DHT22;6208;48.956;9.076;2023-07-13T03:53:37;18.20;99.90
12291;DHT22;6208;48.956;9.076;2023-07-13T03:56:22;18.10;99.90
12291;DHT22;6208;48.956;9.076;2023-07-13T03:59:06;18.00;99.90
12291;DHT22;6208;48.956;9.076;2023-07-13T04:01:50;18.00;99.90
12291;DHT22;6208;48.956;9.076;2023-07-13T04:04:34;18.10;99.90
12291;DHT22;6208;48.956;9.076;2023-07-13T04:07:18;18.10;99.90
12291;DHT22;6208;48.956;9.076;2023-07-13T04:10:03;18.00;99.90
12291;DHT22;6208;48.956;9.076;2023-07-13T04:12:47;17.90;99.90
12291;DHT22;6208;48.956;9.076;2023-07-13T04:15:32;17.90;99.90
12291;DHT22;6208;48.956;9.076;2023-07-13T04:18:16;17.90;99.90
12291;DHT22;6208;48.956;9.076;2023-07-13T04:21:01;17.80;99.90
12291;DHT22;6208;48.956;9.076;2023-07-13T04:23:45;17.70;99.90
12291;DHT22;6208;48.956;9.076;2023-07-13T04:26:29;17.60;99.90
12291;DHT22;6208;48.956;9.076;2023-07-13T04:29:14;17.50;99.90
12291;DHT22;6208;48.956;9.076;2023-07-13T04:31:59;17.60;99.90
12291;DHT22;6208;48.956;9.076;2023-07-13T04:34:43;17.70;99.90
12291;DHT22;6208;48.956;9.076;2023-07-13T04:37:27;17.90;99.90
12291;DHT22;6208;48.956;9.076;2023-07-13T04:40:11;17.90;99.90
12291;DHT22;6208;48.956;9.076;2023-07-13T04:42:56;17.80;99.90
12291;DHT22;6208;48.956;9.076;2023-07-13T04:45:41;17.80;99.90
12291;DHT22;6208;48.956;9.076;2023-07-13T04:48:25;17.80;99.90
12291;DHT22;6208;48.956;9.076;2023-07-13T04:51:10;17.90;99.90
12291;DHT22;6208;48.956;9.076;2023-07-13T04:53:54;17.80;99.90
12291;DHT22;6208;48.956;9.076;2023-07-13T04:56:39;17.80;99.90
12291;DHT22;6208;48.956;9.076;2023-07-13T04:59:23;17.80;99.90
12291;DHT22;6208;48.956;9.076;2023-07-13T05:02:08;17.90;99.90
12291;DHT22;6208;48.956;9.076;2023-07-13T05:04:52;17.90;99.90
12291;DHT22;6208;48.956;9.076;2023-07-13T05:07:36;18.00;99.90
12291;DHT22;6208;48.956;9.076;2023-07-13T05:10:20;18.00;99.90
12291;DHT22;6208;48.956;9.076;2023-07-13T05:13:04;18.10;99.90
12291;DHT22;6208;48.956;9.076;2023-07-13T05:15:57;18.20;99.90
12291;DHT22;6208;48.956;9.076;2023-07-13T05:18:41;18.40;99.90
12291;DHT22;6208;48.956;9.076;2023-07-13T05:21:25;18.50;99.90
12291;DHT22;6208;48.956;9.076;2023-07-13T05:24:09;18.50;99.90
12291;DHT22;6208;48.956;9.076;2023-07-13T05:26:54;18.50;99.90
12291;DHT22;6208;48.956;9.076;2023-07-13T05:29:39;18.50;99.90
12291;DHT22;6208;48.956;9.076;2023-07-13T05:32:23;18.50;99.90
12291;DHT22;6208;48.956;9.076;2023-07-13T05:35:08;18.40;99.90
12291;DHT22;6208;48.956;9.076;2023-07-13T05:37:52;18.40;99.90
12291;DHT22;6208;48.956;9.076;2023-07-13T05:40:37;18.50;99.90
12291;DHT22;6208;48.956;9.076;2023-07-13T05:43:22;18.50;99.90
12291;DHT22;6208;48.956;9.076;2023-07-13T05:46:06;18.60;99.90
12291;DHT22;6208;48.956;9.076;2023-07-13T05:48:51;18.70;99.90
12291;DHT22;6208;48.956;9.076;2023-07-13T05:51:35;18.80;99.90
12291;DHT22;6208;48.956;9.076;2023-07-13T05:54:19;18.90;99.90
12291;DHT22;6208;48.956;9.076;2023-07-13T05:57:04;19.00;99.90
12291;DHT22;6208;48.956;9.076;2023-07-13T05:59:48;19.10;99.90
12291;DHT22;6208;48.956;9.076;2023-07-13T06:02:32;19.10;99.90
12291;DHT22;6208;48.956;9.076;2023-07-13T06:05:16;19.20;99.90
12291;DHT22;6208;48.956;9.076;2023-07-13T06:08:01;19.40;99.90
12291;DHT22;6208;48.956;9.076;2023-07-13T06:10:45;19.40;99.90
12291;DHT22;6208;48.956;9.076;2023-07-13T06:13:29;19.50;99.90
12291;DHT22;6208;48.956;9.076;2023-07-13T06:16:14;19.50;99.90
12291;DHT22;6208;48.956;9.076;2023-07-13T06:18:59;19.60;99.90
12291;DHT22;6208;48.956;9.076;2023-07-13T06:21:43;19.50;99.90
12291;DHT22;6208;48.956;9.076;2023-07-13T06:24:27;19.60;99.90
12291;DHT22;6208;48.956;9.076;2023-07-13T06:27:11;19.60;99.90
12291;DHT22;6208;48.956;9.076;2023-07-13T06:29:55;19.70;99.90
12291;DHT22;6208;48.956;9.076;2023-07-13T06:32:40;19.70;99.90
12291;DHT22;6208;48.956;9.076;2023-07-13T06:35:24;19.80;99.90
12291;DHT22;6208;48.956;9.076;2023-07-13T06:38:09;19.90;99.90
12291;DHT22;6208;48.956;9.076;2023-07-13T06:40:53;19.90;99.90
12291;DHT22;6208;48.956;9.076;2023-07-13T06:43:37;20.00;99.90
12291;DHT22;6208;48.956;9.076;2023-07-13T06:46:21;20.10;99.90
12291;DHT22;6208;48.956;9.076;2023-07-13T06:49:05;20.30;99.90
12291;DHT22;6208;48.956;9.076;2023-07-13T06:51:50;20.30;99.50
12291;DHT22;6208;48.956;9.076;2023-07-13T06:54:35;20.30;99.10
12291;DHT22;6208;48.956;9.076;2023-07-13T06:57:19;20.30;99.60
12291;DHT22;6208;48.956;9.076;2023-07-13T07:00:04;20.30;99.50
12291;DHT22;6208;48.956;9.076;2023-07-13T07:02:50;20.40;99.20
12291;DHT22;6208;48.956;9.076;2023-07-13T07:05:35;20.50;98.80
12291;DHT22;6208;48.956;9.076;2023-07-13T07:08:19;20.60;98.50
12291;DHT22;6208;48.956;9.076;2023-07-13T07:11:03;20.70;98.90
12291;DHT22;6208;48.956;9.076;2023-07-13T07:13:47;20.70;97.00
12291;DHT22;6208;48.956;9.076;2023-07-13T07:16:31;20.80;97.70
12291;DHT22;6208;48.956;9.076;2023-07-13T07:19:16;20.80;96.90
12291;DHT22;6208;48.956;9.076;2023-07-13T07:22:00;20.90;96.10
12291;DHT22;6208;48.956;9.076;2023-07-13T07:24:44;21.00;96.60
12291;DHT22;6208;48.956;9.076;2023-07-13T07:27:28;21.00;96.20
12291;DHT22;6208;48.956;9.076;2023-07-13T07:30:12;20.90;96.00
12291;DHT22;6208;48.956;9.076;2023-07-13T07:32:56;21.10;95.40
12291;DHT22;6208;48.956;9.076;2023-07-13T07:35:40;21.20;96.70
12291;DHT22;6208;48.956;9.076;2023-07-13T07:38:25;21.30;97.10
12291;DHT22;6208;48.956;9.076;2023-07-13T07:41:09;21.40;97.10
12291;DHT22;6208;48.956;9.076;2023-07-13T07:43:54;21.60;94.80
12291;DHT22;6208;48.956;9.076;2023-07-13T07:46:39;21.60;95.90
12291;DHT22;6208;48.956;9.076;2023-07-13T07:49:25;21.70;95.40
12291;DHT22;6208;48.956;9.076;2023-07-13T07:52:09;21.90;94.10
12291;DHT22;6208;48.956;9.076;2023-07-13T07:54:53;21.90;94.60
12291;DHT22;6208;48.956;9.076;2023-07-13T07:57:37;22.00;94.10
12291;DHT22;6208;48.956;9.076;2023-07-13T08:00:21;22.10;92.80
12291;DHT22;6208;48.956;9.076;2023-07-13T08:03:05;22.20;92.60
12291;DHT22;6208;48.956;9.076;2023-07-13T08:05:52;22.20;90.30
12291;DHT22;6208;48.956;9.076;2023-07-13T08:08:36;22.40;91.20
12291;DHT22;6208;48.956;9.076;2023-07-13T08:11:21;22.50;91.60
12291;DHT22;6208;48.956;9.076;2023-07-13T08:14:06;22.60;88.50
12291;DHT22;6208;48.956;9.076;2023-07-13T08:16:50;22.70;91.00
12291;DHT22;6208;48.956;9.076;2023-07-13T08:19:34;22.90;89.30
12291;DHT22;6208;48.956;9.076;2023-07-13T08:22:18;22.90;90.20
12291;DHT22;6208;48.956;9.076;2023-07-13T08:25:02;22.90;89.20
12291;DHT22;6208;48.956;9.076;2023-07-13T08:27:46;23.00;90.60
12291;DHT22;6208;48.956;9.076;2023-07-13T08:30:30;23.10;88.50
12291;DHT22;6208;48.956;9.076;2023-07-13T08:33:16;23.20;89.00
12291;DHT22;6208;48.956;9.076;2023-07-13T08:36:00;23.30;87.50
12291;DHT22;6208;48.956;9.076;2023-07-13T08:38:44;23.40;82.50
12291;DHT22;6208;48.956;9.076;2023-07-13T08:41:28;23.40;84.90
12291;DHT22;6208;48.956;9.076;2023-07-13T08:44:23;23.50;79.30
12291;DHT22;6208;48.956;9.076;2023-07-13T08:47:11;23.50;81.50
12291;DHT22;6208;48.956;9.076;2023-07-13T08:49:55;23.60;75.00
12291;DHT22;6208;48.956;9.076;2023-07-13T08:52:42;23.50;77.90
12291;DHT22;6208;48.956;9.076;2023-07-13T08:55:30;23.50;79.90
12291;DHT22;6208;48.956;9.076;2023-07-13T08:58:17;23.70;74.40
12291;DHT22;6208;48.956;9.076;2023-07-13T09:04:13;23.90;79.70
12291;DHT22;6208;48.956;9.076;2023-07-13T09:07:17;23.80;75.00
12291;DHT22;6208;48.956;9.076;2023-07-13T09:10:28;24.00;76.70
12291;DHT22;6208;48.956;9.076;2023-07-13T09:16:14;24.20;73.90
12291;DHT22;6208;48.956;9.076;2023-07-13T09:19:04;24.30;73.50
12291;DHT22;6208;48.956;9.076;2023-07-13T09:21:51;24.30;75.00
12291;DHT22;6208;48.956;9.076;2023-07-13T09:24:58;24.30;72.60
12291;DHT22;6208;48.956;9.076;2023-07-13T09:27:46;24.30;75.40
12291;DHT22;6208;48.956;9.076;2023-07-13T09:30:56;24.40;73.10
12291;DHT22;6208;48.956;9.076;2023-07-13T09:33:42;24.40;74.60
12291;DHT22;6208;48.956;9.076;2023-07-13T09:36:32;24.40;75.10
12291;DHT22;6208;48.956;9.076;2023-07-13T09:39:37;24.50;73.60
12291;DHT22;6208;48.956;9.076;2023-07-13T09:42:23;24.50;75.20
12291;DHT22;6208;48.956;9.076;2023-07-13T09:45:09;24.50;75.00
12291;DHT22;6208;48.956;9.076;2023-07-13T09:48:00;24.60;73.40
12291;DHT22;6208;48.956;9.076;2023-07-13T09:50:47;24.70;77.40
12291;DHT22;6208;48.956;9.076;2023-07-13T09:53:32;24.80;73.50
12291;DHT22;6208;48.956;9.076;2023-07-13T09:56:21;24.80;74.30
12291;DHT22;6208;48.956;9.076;2023-07-13T09:59:21;24.90;73.80
12291;DHT22;6208;48.956;9.076;2023-07-13T10:02:33;25.10;71.50
12291;DHT22;6208;48.956;9.076;2023-07-13T10:05:17;25.00;72.50
12291;DHT22;6208;48.956;9.076;2023-07-13T10:08:04;25.10;72.80
12291;DHT22;6208;48.956;9.076;2023-07-13T10:10:59;25.20;67.30
12291;DHT22;6208;48.956;9.076;2023-07-13T10:14:02;25.30;69.60
12291;DHT22;6208;48.956;9.076;2023-07-13T10:16:47;25.40;66.10
12291;DHT22;6208;48.956;9.076;2023-07-13T10:19:35;25.40;63.90
12291;DHT22;6208;48.956;9.076;2023-07-13T10:22:24;25.50;64.90
12291;DHT22;6208;48.956;9.076;2023-07-13T10:25:20;25.40;66.40
12291;DHT22;6208;48.956;9.076;2023-07-13T10:28:31;25.50;64.70
12291;DHT22;6208;48.956;9.076;2023-07-13T10:31:17;25.50;61.70
12291;DHT22;6208;48.956;9.076;2023-07-13T10:34:02;25.50;63.30
12291;DHT22;6208;48.956;9.076;2023-07-13T10:36:48;25.60;66.80
12291;DHT22;6208;48.956;9.076;2023-07-13T10:39:33;25.50;65.00
12291;DHT22;6208;48.956;9.076;2023-07-13T10:42:28;25.60;60.10
12291;DHT22;6208;48.956;9.076;2023-07-13T10:45:15;25.60;60.80
12291;DHT22;6208;48.956;9.076;2023-07-13T10:48:01;25.70;58.00
12291;DHT22;6208;48.956;9.076;2023-07-13T10:50:48;25.70;57.90
12291;DHT22;6208;48.956;9.076;2023-07-13T10:53:34;25.60;61.00
12291;DHT22;6208;48.956;9.076;2023-07-13T10:56:29;25.70;59.00
12291;DHT22;6208;48.956;9.076;2023-07-13T10:59:15;25.80;61.70
12291;DHT22;6208;48.956;9.076;2023-07-13T11:04:49;26.20;59.80
12291;DHT22;6208;48.956;9.076;2023-07-13T11:07:54;26.30;62.10
12291;DHT22;6208;48.956;9.076;2023-07-13T11:16:46;26.40;57.10
12291;DHT22;6208;48.956;9.076;2023-07-13T11:19:39;26.40;59.00
12291;DHT22;6208;48.956;9.076;2023-07-13T11:22:40;26.50;56.80
12291;DHT22;6208;48.956;9.076;2023-07-13T11:25:33;26.60;60.10
12291;DHT22;6208;48.956;9.076;2023-07-13T11:28:22;26.60;57.80
12291;DHT22;6208;48.956;9.076;2023-07-13T11:31:14;26.60;56.10
12291;DHT22;6208;48.956;9.076;2023-07-13T11:33:59;26.70;61.20
12291;DHT22;6208;48.956;9.076;2023-07-13T11:36:45;26.80;61.10
12291;DHT22;6208;48.956;9.076;2023-07-13T11:39:36;26.90;51.70
12291;DHT22;6208;48.956;9.076;2023-07-13T11:42:22;27.10;56.40
12291;DHT22;6208;48.956;9.076;2023-07-13T11:45:20;27.20;59.70
12291;DHT22;6208;48.956;9.076;2023-07-13T11:48:18;27.10;59.70
12291;DHT22;6208;48.956;9.076;2023-07-13T11:51:06;27.00;61.50
12291;DHT22;6208;48.956;9.076;2023-07-13T11:53:51;27.10;57.80
12291;DHT22;6208;48.956;9.076;2023-07-13T11:56:36;27.10;54.70
12291;DHT22;6208;48.956;9.076;2023-07-13T11:59:21;27.10;56.90
12291;DHT22;6208;48.956;9.076;2023-07-13T12:02:28;27.10;56.20
12291;DHT22;6208;48.956;9.076;2023-07-13T12:05:14;27.10;56.80
12291;DHT22;6208;48.956;9.076;2023-07-13T12:07:59;27.30;55.20
12291;DHT22;6208;48.956;9.076;2023-07-13T12:11:01;27.40;53.20
12291;DHT22;6208;48.956;9.076;2023-07-13T12:13:49;27.30;54.90
12291;DHT22;6208;48.956;9.076;2023-07-13T12:16:34;27.40;54.70
12291;DHT22;6208;48.956;9.076;2023-07-13T12:19:28;27.50;52.20
12291;DHT22;6208;48.956;9.076;2023-07-13T12:22:14;27.60;49.40
12291;DHT22;6208;48.956;9.076;2023-07-13T12:25:00;27.70;49.50
12291;DHT22;6208;48.956;9.076;2023-07-13T12:27:49;27.70;45.80
12291;DHT22;6208;48.956;9.076;2023-07-13T12:30:33;27.80;50.00
12291;DHT22;6208;48.956;9.076;2023-07-13T12:33:20;27.90;51.40
12291;DHT22;6208;48.956;9.076;2023-07-13T12:36:06;28.00;52.50
12291;DHT22;6208;48.956;9.076;2023-07-13T12:38:51;28.00;50.90
12291;DHT22;6208;48.956;9.076;2023-07-13T12:41:35;28.00;52.10
12291;DHT22;6208;48.956;9.076;2023-07-13T12:44:30;28.10;54.30
12291;DHT22;6208;48.956;9.076;2023-07-13T12:47:15;28.20;48.00
12291;DHT22;6208;48.956;9.076;2023-07-13T12:50:03;28.10;49.50
12291;DHT22;6208;48.956;9.076;2023-07-13T12:52:52;28.00;47.70
12291;DHT22;6208;48.956;9.076;2023-07-13T12:55:49;28.10;48.90
12291;DHT22;6208;48.956;9.076;2023-07-13T12:58:39;28.10;46.80
12291;DHT22;6208;48.956;9.076;2023-07-13T13:01:31;28.10;48.40
12291;DHT22;6208;48.956;9.076;2023-07-13T13:04:16;28.10;48.00
12291;DHT22;6208;48.956;9.076;2023-07-13T13:07:08;28.00;49.80
12291;DHT22;6208;48.956;9.076;2023-07-13T13:09:53;28.10;47.90
12291;DHT22;6208;48.956;9.076;2023-07-13T13:12:37;28.00;49.60
12291;DHT22;6208;48.956;9.076;2023-07-13T13:15:21;28.10;49.80
12291;DHT22;6208;48.956;9.076;2023-07-13T13:18:15;28.10;47.10
12291;DHT22;6208;48.956;9.076;2023-07-13T13:21:00;28.10;51.10
12291;DHT22;6208;48.956;9.076;2023-07-13T13:23:45;28.20;50.90
12291;DHT22;6208;48.956;9.076;2023-07-13T13:26:35;28.10;49.80
12291;DHT22;6208;48.956;9.076;2023-07-13T13:29:22;28.20;50.30
12291;DHT22;6208;48.956;9.076;2023-07-13T13:32:12;28.20;47.60
12291;DHT22;6208;48.956;9.076;2023-07-13T13:34:56;28.20;48.50
12291;DHT22;6208;48.956;9.076;2023-07-13T13:37:41;28.10;51.40
12291;DHT22;6208;48.956;9.076;2023-07-13T13:40:26;28.00;50.80
12291;DHT22;6208;48.956;9.076;2023-07-13T13:43:16;28.00;48.20
12291;DHT22;6208;48.956;9.076;2023-07-13T13:46:14;27.90;45.90
12291;DHT22;6208;48.956;9.076;2023-07-13T13:48:58;28.00;47.70
12291;DHT22;6208;48.956;9.076;2023-07-13T13:51:43;28.10;50.30
12291;DHT22;6208;48.956;9.076;2023-07-13T13:54:27;28.10;48.30
12291;DHT22;6208;48.956;9.076;2023-07-13T13:57:11;28.00;46.60
12291;DHT22;6208;48.956;9.076;2023-07-13T13:59:56;28.10;47.90
12291;DHT22;6208;48.956;9.076;2023-07-13T14:02:41;28.20;48.60
12291;DHT22;6208;48.956;9.076;2023-07-13T14:05:26;28.20;48.70
12291;DHT22;6208;48.956;9.076;2023-07-13T14:08:15;28.30;47.40
12291;DHT22;6208;48.956;9.076;2023-07-13T14:11:00;28.30;45.30
12291;DHT22;6208;48.956;9.076;2023-07-13T14:13:48;28.40;46.70
12291;DHT22;6208;48.956;9.076;2023-07-13T14:16:33;28.30;45.50
12291;DHT22;6208;48.956;9.076;2023-07-13T14:19:18;28.40;47.80
12291;DHT22;6208;48.956;9.076;2023-07-13T14:22:02;28.30;48.20
12291;DHT22;6208;48.956;9.076;2023-07-13T14:24:47;28.30;48.30
12291;DHT22;6208;48.956;9.076;2023-07-13T14:27:31;28.30;46.30
12291;DHT22;6208;48.956;9.076;2023-07-13T14:30:22;28.40;45.70
12291;DHT22;6208;48.956;9.076;2023-07-13T14:33:11;28.40;50.10
12291;DHT22;6208;48.956;9.076;2023-07-13T14:35:56;28.40;48.10
12291;DHT22;6208;48.956;9.076;2023-07-13T14:38:41;28.40;48.00
12291;DHT22;6208;48.956;9.076;2023-07-13T14:41:25;28.50;47.40
12291;DHT22;6208;48.956;9.076;2023-07-13T14:44:14;28.50;47.20
12291;DHT22;6208;48.956;9.076;2023-07-13T14:47:01;28.50;46.70
12291;DHT22;6208;48.956;9.076;2023-07-13T14:49:45;28.40;48.40
12291;DHT22;6208;48.956;9.076;2023-07-13T14:52:32;28.40;48.30
12291;DHT22;6208;48.956;9.076;2023-07-13T14:55:18;28.30;47.20
12291;DHT22;6208;48.956;9.076;2023-07-13T14:58:02;28.20;50.50
12291;DHT22;6208;48.956;9.076;2023-07-13T15:00:47;28.30;49.80
12291;DHT22;6208;48.956;9.076;2023-07-13T15:03:32;28.30;48.90
12291;DHT22;6208;48.956;9.076;2023-07-13T15:06:16;28.30;51.80
12291;DHT22;6208;48.956;9.076;2023-07-13T15:09:01;28.40;51.00
12291;DHT22;6208;48.956;9.076;2023-07-13T15:11:45;28.50;48.50
12291;DHT22;6208;48.956;9.076;2023-07-13T15:14:29;28.40;47.60
12291;DHT22;6208;48.956;9.076;2023-07-13T15:17:28;28.30;49.90
12291;DHT22;6208;48.956;9.076;2023-07-13T15:20:17;28.30;49.90
12291;DHT22;6208;48.956;9.076;2023-07-13T15:23:02;28.30;50.30
12291;DHT22;6208;48.956;9.076;2023-07-13T15:25:47;28.20;49.40
12291;DHT22;6208;48.956;9.076;2023-07-13T15:28:31;28.10;48.50
12291;DHT22;6208;48.956;9.076;2023-07-13T15:31:22;28.00;47.50
12291;DHT22;6208;48.956;9.076;2023-07-13T15:34:15;27.90;49.70
12291;DHT22;6208;48.956;9.076;2023-07-13T15:37:00;28.00;49.90
12291;DHT22;6208;48.956;9.076;2023-07-13T15:39:45;27.70;50.60
12291;DHT22;6208;48.956;9.076;2023-07-13T15:42:29;27.70;50.20
12291;DHT22;6208;48.956;9.076;2023-07-13T15:45:19;27.60;50.60
12291;DHT22;6208;48.956;9.076;2023-07-13T15:51:03;27.30;51.40
12291;DHT22;6208;48.956;9.076;2023-07-13T15:53:47;27.30;51.10
12291;DHT22;6208;48.956;9.076;2023-07-13T15:56:36;27.40;51.30
12291;DHT22;6208;48.956;9.076;2023-07-13T15:59:22;27.20;50.90
12291;DHT22;6208;48.956;9.076;2023-07-13T16:02:17;27.00;50.70
12291;DHT22;6208;48.956;9.076;2023-07-13T16:05:01;27.00;51.20
12291;DHT22;6208;48.956;9.076;2023-07-13T16:07:48;27.10;51.30
12291;DHT22;6208;48.956;9.076;2023-07-13T16:10:36;27.20;49.20
12291;DHT22;6208;48.956;9.076;2023-07-13T16:13:24;27.30;48.20
12291;DHT22;6208;48.956;9.076;2023-07-13T16:16:11;27.40;50.70
12291;DHT22;6208;48.956;9.076;2023-07-13T16:18:57;27.40;50.60
12291;DHT22;6208;48.956;9.076;2023-07-13T16:21:46;27.40;50.60
12291;DHT22;6208;48.956;9.076;2023-07-13T16:24:32;27.40;50.70
12291;DHT22;6208;48.956;9.076;2023-07-13T16:27:16;27.20;49.90
12291;DHT22;6208;48.956;9.076;2023-07-13T16:32:59;27.00;51.50
12291;DHT22;6208;48.956;9.076;2023-07-13T16:35:48;27.00;52.10
12291;DHT22;6208;48.956;9.076;2023-07-13T16:38:33;27.00;50.80
12291;DHT22;6208;48.956;9.076;2023-07-13T16:41:17;26.90;51.40
12291;DHT22;6208;48.956;9.076;2023-07-13T16:44:04;26.90;52.80
12291;DHT22;6208;48.956;9.076;2023-07-13T16:46:52;26.70;52.20
12291;DHT22;6208;48.956;9.076;2023-07-13T16:49:40;26.60;52.10
12291;DHT22;6208;48.956;9.076;2023-07-13T16:52:24;26.70;52.70
12291;DHT22;6208;48.956;9.076;2023-07-13T16:55:11;26.70;50.20
12291;DHT22;6208;48.956;9.076;2023-07-13T16:58:00;26.60;52.00
12291;DHT22;6208;48.956;9.076;2023-07-13T17:00:46;26.50;51.30
12291;DHT22;6208;48.956;9.076;2023-07-13T17:03:31;26.50;52.10
12291;DHT22;6208;48.956;9.076;2023-07-13T17:06:23;26.40;52.90
12291;DHT22;6208;48.956;9.076;2023-07-13T17:09:12;26.30;52.80
12291;DHT22;6208;48.956;9.076;2023-07-13T17:11:59;26.40;52.50
12291;DHT22;6208;48.956;9.076;2023-07-13T17:14:44;26.40;52.00
12291;DHT22;6208;48.956;9.076;2023-07-13T17:17:34;26.40;51.40
12291;DHT22;6208;48.956;9.076;2023-07-13T17:20:31;26.30;52.80
12291;DHT22;6208;48.956;9.076;2023-07-13T17:23:22;26.20;52.70
12291;DHT22;6208;48.956;9.076;2023-07-13T17:26:07;26.10;53.30
12291;DHT22;6208;48.956;9.076;2023-07-13T17:28:53;26.00;54.30
12291;DHT22;6208;48.956;9.076;2023-07-13T17:31:38;25.90;53.30
12291;DHT22;6208;48.956;9.076;2023-07-13T17:34:23;25.80;54.00
12291;DHT22;6208;48.956;9.076;2023-07-13T17:37:10;25.80;54.20
12291;DHT22;6208;48.956;9.076;2023-07-13T17:39:55;25.70;53.90
12291;DHT22;6208;48.956;9.076;2023-07-13T17:42:41;25.60;54.50
12291;DHT22;6208;48.956;9.076;2023-07-13T17:45:28;25.60;54.90
12291;DHT22;6208;48.956;9.076;2023-07-13T17:48:13;25.60;54.30
12291;DHT22;6208;48.956;9.076;2023-07-13T17:50:58;25.50;54.20
12291;DHT22;6208;48.956;9.076;2023-07-13T17:53:43;25.50;54.80
12291;DHT22;6208;48.956;9.076;2023-07-13T17:56:27;25.30;54.60
12291;DHT22;6208;48.956;9.076;2023-07-13T17:59:12;25.30;54.70
12291;DHT22;6208;48.956;9.076;2023-07-13T18:01:56;25.30;54.40
12291;DHT22;6208;48.956;9.076;2023-07-13T18:04:40;25.20;55.10
12291;DHT22;6208;48.956;9.076;2023-07-13T18:07:24;25.30;55.70
12291;DHT22;6208;48.956;9.076;2023-07-13T18:10:15;25.20;55.60